Time;durP1;ratioP1;P1;durP2;ratioP2;P2;SDS_P1;SDS_P2;PMS_P1;PMS_P2;Temp;Humidity;BMP_temperature;BMP_pressure;BME280_temperature;BME280_humidity;BME280_pressure;Samples;Min_cycle;Max_cycle;Signal;HPM_P1;HPM_P2
2021/04/05 00:00:10;;;;;;;27.45;11.80;;;;;;;1.55;53.35;98717.45;114475;1206;103233;-70
2021/04/05 00:02:58;;;;;;;28.20;11.75;;;;;;;1.55;53.74;98713.96;114391;1206;103152;-71
2021/04/05 00:05:31;;;;;;;28.95;13.20;;;;;;;1.56;53.71;98719.16;114413;1206;103155;-71
2021/04/05 00:08:00;;;;;;;30.20;12.20;;;;;;;1.60;53.25;98712.00;114439;1206;103139;-71
2021/04/05 00:10:33;;;;;;;26.60;12.20;;;;;;;1.62;53.17;98710.17;114300;1206;103091;-71
2021/04/05 00:13:06;;;;;;;28.40;13.30;;;;;;;1.63;53.50;98717.95;114287;1205;103204;-72
2021/04/05 00:15:33;;;;;;;28.60;13.35;;;;;;;1.62;53.45;98705.80;114478;1206;103059;-71
2021/04/05 00:18:01;;;;;;;27.70;13.23;;;;;;;1.64;53.63;98706.55;114471;1206;103136;-70
2021/04/05 00:20:37;;;;;;;26.40;12.20;;;;;;;1.65;53.51;98707.42;114401;1205;103027;-71
2021/04/05 00:23:06;;;;;;;29.50;13.20;;;;;;;1.64;53.50;98703.94;114450;1206;103814;-71
2021/04/05 00:25:33;;;;;;;30.40;14.00;;;;;;;1.63;53.57;98704.02;114474;1206;103079;-71
2021/04/05 00:28:02;;;;;;;30.80;13.00;;;;;;;1.61;53.69;98703.22;114511;1205;103082;-72
2021/04/05 00:30:34;;;;;;;27.70;12.20;;;;;;;1.57;53.51;98697.27;114434;1206;103183;-70
2021/04/05 00:33:04;;;;;;;29.03;13.43;;;;;;;1.57;53.54;98689.41;114428;1205;103111;-71
2021/04/05 00:35:37;;;;;;;30.10;12.50;;;;;;;1.55;53.52;98680.75;114457;1206;103168;-71
2021/04/05 00:38:09;;;;;;;26.10;10.50;;;;;;;1.56;53.87;98678.97;114441;1206;103079;-71
2021/04/05 00:40:46;;;;;;;28.20;13.60;;;;;;;1.56;53.85;98682.45;114475;1206;103050;-70
2021/04/05 00:43:18;;;;;;;27.50;12.50;;;;;;;1.56;53.72;98668.48;114469;1206;103602;-72
2021/04/05 00:45:46;;;;;;;30.90;14.70;;;;;;;1.57;53.80;98660.56;114455;1206;103155;-73
2021/04/05 00:48:16;;;;;;;31.85;14.20;;;;;;;1.59;53.81;98655.24;114452;1205;103568;-72
2021/04/05 00:50:45;;;;;;;29.85;13.35;;;;;;;1.59;53.90;98650.00;114515;1206;103102;-72
2021/04/05 00:53:19;;;;;;;30.30;13.90;;;;;;;1.60;54.09;98646.46;114470;1206;103081;-72
2021/04/05 00:55:48;;;;;;;30.47;14.47;;;;;;;1.59;53.97;98642.14;114490;1205;103161;-72
2021/04/05 00:58:18;;;;;;;32.60;14.70;;;;;;;1.57;53.93;98638.73;114444;1206;103171;-72
2021/04/05 01:00:52;;;;;;;30.00;13.30;;;;;;;1.54;53.96;98634.48;114474;1206;103135;-71
2021/04/05 01:03:25;;;;;;;32.90;14.30;;;;;;;1.49;54.03;98631.20;114430;1206;103095;-70
2021/04/05 01:06:00;;;;;;;28.10;13.20;;;;;;;1.46;54.00;98623.47;114476;1206;103248;-70
2021/04/05 01:08:29;;;;;;;34.70;15.90;;;;;;;1.45;53.93;98619.14;114490;1206;103235;-71
2021/04/05 01:10:58;;;;;;;27.30;13.00;;;;;;;1.41;53.93;98615.81;114442;1205;103139;-72
2021/04/05 01:13:25;;;;;;;33.40;15.30;;;;;;;1.36;54.14;98609.91;114292;1205;103053;-72
2021/04/05 01:15:52;;;;;;;31.15;15.60;;;;;;;1.35;53.96;98616.06;114304;1205;103102;-71
2021/04/05 01:18:21;;;;;;;36.40;16.30;;;;;;;1.31;54.21;98609.25;114334;1206;103104;-70
2021/04/05 01:20:50;;;;;;;30.90;15.30;;;;;;;1.26;54.04;98598.94;114485;1204;103249;-71
2021/04/05 01:23:20;;;;;;;35.00;15.50;;;;;;;1.25;54.18;98599.85;114482;1206;103049;-71
2021/04/05 01:25:49;;;;;;;36.30;16.20;;;;;;;1.23;54.31;98601.69;114533;1206;103184;-71
2021/04/05 01:28:16;;;;;;;34.60;17.45;;;;;;;1.22;54.32;98597.39;114443;1206;103198;-71
2021/04/05 01:30:43;;;;;;;35.40;17.45;;;;;;;1.16;54.11;98595.86;114499;1206;103197;-71
2021/04/05 01:33:31;;;;;;;35.13;17.50;;;;;;;1.12;54.00;98589.05;114474;1206;103200;-70
2021/04/05 01:36:05;;;;;;;34.10;16.60;;;;;;;1.10;54.06;98590.03;114439;1206;103155;-70
2021/04/05 01:38:40;;;;;;;34.30;15.60;;;;;;;1.03;54.22;98578.94;114432;1206;103120;-70
2021/04/05 01:41:13;;;;;;;33.00;16.90;;;;;;;0.99;54.32;98575.61;114477;1206;103056;-71
2021/04/05 01:43:42;;;;;;;31.25;15.35;;;;;;;0.98;54.56;98575.69;114501;1206;103204;-71
2021/04/05 01:46:12;;;;;;;32.40;15.20;;;;;;;0.96;54.60;98570.50;114493;1206;103168;-71
2021/04/05 01:48:42;;;;;;;33.87;15.67;;;;;;;0.99;54.60;98564.30;114474;1205;103085;-71
2021/04/05 01:51:15;;;;;;;32.70;15.90;;;;;;;1.02;54.66;98561.52;114496;1206;103082;-71
2021/04/05 01:53:45;;;;;;;34.70;15.60;;;;;;;1.01;54.75;98563.31;114442;1206;103082;-71
2021/04/05 01:56:16;;;;;;;32.40;15.35;;;;;;;0.99;54.70;98553.83;114488;1206;103210;-71
2021/04/05 01:58:48;;;;;;;32.40;14.70;;;;;;;0.98;54.63;98546.88;114417;1206;103063;-71
2021/04/05 02:01:18;;;;;;;33.00;14.60;;;;;;;0.96;54.36;98549.55;114214;1205;103082;-71
2021/04/05 02:03:47;;;;;;;31.95;14.35;;;;;;;0.94;54.72;98542.69;114374;1206;103092;-72
2021/04/05 02:06:29;;;;;;;27.80;13.75;;;;;;;0.92;54.28;98541.89;114377;1206;101725;-72
2021/04/05 02:08:57;;;;;;;32.55;14.00;;;;;;;0.88;54.49;98533.30;114619;1206;103168;-70
2021/04/05 02:11:29;;;;;;;29.80;12.80;;;;;;;0.85;54.79;98528.19;114404;1206;104727;-70
2021/04/05 02:13:59;;;;;;;29.85;12.40;;;;;;;0.80;54.22;98527.55;114726;1205;103121;-70
2021/04/05 02:16:28;;;;;;;27.00;12.00;;;;;;;0.74;54.62;98516.41;114351;1206;103062;-70
2021/04/05 02:18:58;;;;;;;28.90;13.45;;;;;;;0.70;54.32;98520.07;114390;1206;103145;-71
2021/04/05 02:21:27;;;;;;;27.50;13.00;;;;;;;0.67;54.48;98512.34;114404;1206;103053;-71
2021/04/05 02:24:01;;;;;;;26.60;11.80;;;;;;;0.67;54.24;98508.86;114342;1205;103210;-70
2021/04/05 02:26:33;;;;;;;28.20;13.10;;;;;;;0.68;54.88;98502.70;114504;1205;103056;-70
2021/04/05 02:29:04;;;;;;;29.00;12.77;;;;;;;0.69;54.70;98507.03;114547;1206;103168;-70
2021/04/05 02:31:34;;;;;;;28.80;13.60;;;;;;;0.69;54.55;98496.56;114462;1206;103086;-70
2021/04/05 02:34:12;;;;;;;25.80;11.10;;;;;;;0.67;54.92;98496.64;114433;1206;103201;-70
2021/04/05 02:36:41;;;;;;;29.35;12.85;;;;;;;0.64;54.68;98488.91;114344;1206;103041;-70
2021/04/05 02:39:13;;;;;;;29.30;13.27;;;;;;;0.61;54.45;98489.03;114367;1206;103088;-71
2021/04/05 02:41:44;;;;;;;27.63;12.53;;;;;;;0.56;55.03;98485.75;114518;1206;103118;-71
2021/04/05 02:44:12;;;;;;;28.30;13.20;;;;;;;0.56;55.05;98490.98;114473;1206;103059;-70
2021/04/05 02:46:41;;;;;;;32.15;13.55;;;;;;;0.48;54.57;98480.84;114356;1206;103155;-70
2021/04/05 02:49:16;;;;;;;30.00;14.00;;;;;;;0.40;54.57;98475.93;115614;1205;103207;-70
2021/04/05 02:51:50;;;;;;;29.53;14.50;;;;;;;0.35;54.78;98472.64;114494;1204;103749;-70
2021/04/05 02:54:20;;;;;;;27.20;13.65;;;;;;;0.33;54.91;98469.23;114475;1206;103082;-71
2021/04/05 02:56:49;;;;;;;29.93;15.37;;;;;;;0.29;54.95;98468.49;114951;1205;103059;-70
2021/04/05 02:59:20;;;;;;;30.00;14.00;;;;;;;0.27;54.84;98459.02;114387;1206;103089;-70
2021/04/05 03:01:49;;;;;;;28.50;13.55;;;;;;;0.25;55.26;98453.83;114463;1206;103127;-71
2021/04/05 03:04:18;;;;;;;29.65;13.90;;;;;;;0.23;54.93;98454.82;114185;1206;103129;-70
2021/04/05 03:06:50;;;;;;;28.60;14.50;;;;;;;0.20;54.99;98444.48;114537;1205;103039;-69
2021/04/05 03:09:18;;;;;;;29.10;12.70;;;;;;;0.18;55.09;98441.08;114510;1206;103232;-69
2021/04/05 03:11:49;;;;;;;29.75;13.90;;;;;;;0.13;55.43;98436.88;114455;1206;103056;-69
2021/04/05 03:14:20;;;;;;;30.80;14.60;;;;;;;0.10;55.03;98433.55;114387;1205;103066;-71
2021/04/05 03:16:51;;;;;;;27.20;13.30;;;;;;;0.05;55.24;98427.64;114435;1206;103054;-71
2021/04/05 03:19:22;;;;;;;30.40;13.03;;;;;;;0.01;55.42;98426.90;114486;1206;103047;-70
2021/04/05 03:21:51;;;;;;;30.10;13.90;;;;;;;-0.03;55.61;98420.12;114512;1205;103545;-71
2021/04/05 03:24:20;;;;;;;27.80;13.50;;;;;;;-0.11;55.35;98412.55;114549;1205;103538;-70
2021/04/05 03:26:47;;;;;;;31.30;14.70;;;;;;;-0.17;55.45;98408.44;114559;1206;103155;-70
2021/04/05 03:29:17;;;;;;;30.90;13.65;;;;;;;-0.22;55.40;98404.31;114992;1206;103544;-70
2021/04/05 03:31:47;;;;;;;29.73;13.37;;;;;;;-0.26;55.19;98394.88;114527;1206;103062;-70
2021/04/05 03:34:24;;;;;;;28.93;13.57;;;;;;;-0.29;55.75;98395.84;114509;1206;103089;-70
2021/04/05 03:37:00;;;;;;;26.30;12.60;;;;;;;-0.33;56.02;98389.02;114240;1206;103259;-70
2021/04/05 03:39:28;;;;;;;29.50;13.60;;;;;;;-0.32;55.59;98388.98;114264;1205;102215;-70
2021/04/05 03:42:07;;;;;;;25.65;11.95;;;;;;;-0.30;55.48;98388.91;114396;1206;103082;-70
2021/04/05 03:44:51;;;;;;;26.45;11.45;;;;;;;-0.31;56.08;98380.23;114458;1206;103091;-71
2021/04/05 03:47:33;;;;;;;27.15;12.55;;;;;;;-0.29;56.29;98372.31;114361;1205;103200;-71
2021/04/05 03:50:26;;;;;;;30.03;12.43;;;;;;;-0.28;55.84;98370.56;114405;1206;103163;-71
2021/04/05 03:53:34;;;;;;;25.00;10.85;;;;;;;-0.28;56.11;98362.73;114492;1206;103053;-71
2021/04/05 03:56:26;;;;;;;26.70;12.30;;;;;;;-0.30;56.54;98354.93;114472;1206;103155;-71
2021/04/05 03:59:01;;;;;;;24.60;12.05;;;;;;;-0.35;55.94;98347.28;114500;1206;103239;-70
2021/04/05 04:01:30;;;;;;;26.90;11.90;;;;;;;-0.36;56.09;98348.20;114497;1206;103053;-70
2021/04/05 04:04:13;;;;;;;25.17;11.97;;;;;;;-0.37;56.20;98337.78;114357;1206;103520;-71
2021/04/05 04:06:58;;;;;;;30.45;11.60;;;;;;;-0.37;56.15;98337.78;114403;1206;103123;-71
2021/04/05 04:09:27;;;;;;;24.70;11.48;;;;;;;-0.38;56.80;98323.02;115440;1206;100861;-71
2021/04/05 04:11:58;;;;;;;25.30;11.20;;;;;;;-0.37;56.68;98330.81;114344;1207;103082;-71
2021/04/05 04:14:29;;;;;;;27.47;12.07;;;;;;;-0.33;56.29;98321.08;114495;1206;103520;-73
2021/04/05 04:16:58;;;;;;;27.20;13.05;;;;;;;-0.32;56.29;98317.55;114526;1206;103159;-72
2021/04/05 04:19:29;;;;;;;25.55;10.65;;;;;;;-0.32;56.54;98318.42;114358;1205;103448;-72
2021/04/05 04:21:56;;;;;;;27.00;11.65;;;;;;;-0.29;56.72;98320.05;114491;1206;103158;-71
2021/04/05 04:24:23;;;;;;;25.75;10.95;;;;;;;-0.27;56.84;98320.00;114348;1206;103587;-71
2021/04/05 04:26:52;;;;;;;24.40;11.70;;;;;;;-0.24;56.94;98327.72;114339;1206;103155;-72
2021/04/05 04:29:22;;;;;;;23.80;10.05;;;;;;;-0.23;57.27;98318.97;114531;1206;103657;-69
2021/04/05 04:31:51;;;;;;;26.10;10.60;;;;;;;-0.23;56.56;98317.19;114505;1206;103557;-71
2021/04/05 04:34:22;;;;;;;24.30;10.50;;;;;;;-0.19;57.52;98307.44;114475;1206;103510;-70
2021/04/05 04:36:51;;;;;;;26.20;11.50;;;;;;;-0.17;57.00;98293.41;114496;1206;103198;-70
2021/04/05 04:39:20;;;;;;;25.00;10.50;;;;;;;-0.14;56.98;98297.66;114466;1206;103236;-70
2021/04/05 04:41:50;;;;;;;24.20;10.40;;;;;;;-0.11;57.61;98294.91;114482;1206;103290;-71
2021/04/05 04:44:19;;;;;;;27.35;11.55;;;;;;;-0.10;57.48;98291.38;114492;1206;103155;-72
2021/04/05 04:46:48;;;;;;;26.07;10.83;;;;;;;-0.09;57.38;98292.25;114451;1206;103158;-69
2021/04/05 04:49:15;;;;;;;22.25;9.25;;;;;;;-0.07;56.90;98280.80;114529;1206;103051;-69
2021/04/05 04:51:42;;;;;;;24.10;10.30;;;;;;;-0.05;57.35;98281.59;114420;1206;103152;-70
2021/04/05 04:54:10;;;;;;;24.13;9.87;;;;;;;-0.02;56.97;98285.86;114490;1206;103050;-71
2021/04/05 04:56:40;;;;;;;22.03;9.87;;;;;;;0.02;57.25;98286.56;114416;1206;103200;-70
2021/04/05 04:59:11;;;;;;;22.25;9.40;;;;;;;0.04;57.36;98284.73;114469;1205;103155;-71
2021/04/05 05:01:41;;;;;;;24.20;9.55;;;;;;;0.08;57.50;98273.23;114834;1206;103025;-71
2021/04/05 05:04:18;;;;;;;20.83;9.00;;;;;;;0.11;57.56;98271.33;114385;1206;103158;-71
2021/04/05 05:06:46;;;;;;;20.60;8.80;;;;;;;0.17;57.64;98266.75;114468;1206;103198;-70
2021/04/05 05:09:16;;;;;;;24.40;10.10;;;;;;;0.19;57.99;98270.15;114378;1206;103083;-71
2021/04/05 05:11:46;;;;;;;22.40;9.10;;;;;;;0.21;57.54;98266.53;114404;1206;103092;-70
2021/04/05 05:14:17;;;;;;;20.95;8.90;;;;;;;0.24;57.51;98255.95;114534;1206;103153;-71
2021/04/05 05:16:46;;;;;;;20.90;9.00;;;;;;;0.28;57.55;98243.60;114522;1206;103062;-70
2021/04/05 05:19:15;;;;;;;21.90;9.40;;;;;;;0.33;57.83;98246.00;114534;1206;103098;-73
2021/04/05 05:21:59;;;;;;;21.80;9.00;;;;;;;0.38;57.60;98244.90;114528;1206;103085;-71
2021/04/05 05:24:31;;;;;;;19.10;8.20;;;;;;;0.43;57.95;98234.22;114496;1205;103097;-69
2021/04/05 05:27:01;;;;;;;21.40;9.10;;;;;;;0.48;58.38;98239.23;114515;1206;103162;-71
2021/04/05 05:29:29;;;;;;;21.60;9.30;;;;;;;0.53;58.57;98227.66;114504;1206;103081;-70
2021/04/05 05:31:57;;;;;;;21.20;7.95;;;;;;;0.61;58.22;98232.53;114404;1205;103101;-70
2021/04/05 05:34:25;;;;;;;20.40;8.90;;;;;;;0.71;58.31;98232.95;114633;1206;103196;-70
2021/04/05 05:36:52;;;;;;;19.10;6.90;;;;;;;0.81;58.56;98220.31;114412;1206;103206;-70
2021/04/05 05:39:20;;;;;;;21.25;7.55;;;;;;;0.91;58.13;98224.17;114460;1206;103153;-71
2021/04/05 05:42:12;;;;;;;19.30;7.30;;;;;;;1.02;58.44;98211.44;114414;1206;103283;-71
2021/04/05 05:45:06;;;;;;;17.15;7.00;;;;;;;1.16;58.64;98210.77;114438;1207;103618;-70
2021/04/05 05:47:58;;;;;;;18.30;7.20;;;;;;;1.28;58.40;98195.39;114444;1206;103053;-70
2021/04/05 05:50:31;;;;;;;16.30;6.73;;;;;;;1.38;58.52;98193.16;114422;1206;103072;-76
2021/04/05 05:53:35;;;;;;;19.10;7.30;;;;;;;1.43;58.59;98192.00;114450;1206;102884;-70
2021/04/05 05:56:35;;;;;;;17.45;7.10;;;;;;;1.47;58.81;98190.92;114489;1206;103158;-73
2021/04/05 05:59:22;;;;;;;19.95;7.40;;;;;;;1.52;58.68;98190.72;114469;1206;103060;-74
2021/04/05 06:01:58;;;;;;;17.25;7.10;;;;;;;1.55;58.66;98190.56;114429;1206;103187;-72
2021/04/05 06:04:47;;;;;;;18.80;7.40;;;;;;;1.60;58.87;98185.08;114452;1206;103580;-69
2021/04/05 06:07:36;;;;;;;17.75;7.40;;;;;;;1.66;58.51;98181.28;114445;1206;103088;-72
2021/04/05 06:10:06;;;;;;;20.90;8.15;;;;;;;1.75;58.51;98186.07;114424;1206;103098;-72
2021/04/05 06:13:01;;;;;;;19.80;7.70;;;;;;;1.83;58.73;98167.34;114486;1206;101395;-72
2021/04/05 06:15:35;;;;;;;17.65;7.15;;;;;;;1.92;58.59;98162.47;114451;1206;103063;-73
2021/04/05 06:18:34;;;;;;;19.70;7.80;;;;;;;2.02;59.08;98159.37;114454;1206;103213;-72
2021/04/05 06:21:16;;;;;;;18.45;7.95;;;;;;;2.14;59.02;98158.70;114533;1205;103082;-71
2021/04/05 06:23:51;;;;;;;19.10;6.90;;;;;;;2.24;58.79;98159.08;114475;1206;103081;-73
2021/04/05 06:26:46;;;;;;;17.30;6.80;;;;;;;2.32;58.91;98146.38;114417;1206;103084;-72
2021/04/05 06:29:22;;;;;;;18.50;6.60;;;;;;;2.43;59.03;98142.33;114528;1206;103213;-71
2021/04/05 06:32:15;;;;;;;17.50;6.60;;;;;;;2.52;59.03;98126.92;114419;1205;103091;-72
2021/04/05 06:35:20;;;;;;;15.00;5.50;;;;;;;2.66;58.49;98127.94;114443;1206;103149;-72
2021/04/05 06:38:01;;;;;;;15.50;6.20;;;;;;;2.78;59.22;98131.66;114453;1206;103102;-71
2021/04/05 06:40:35;;;;;;;16.77;6.13;;;;;;;2.88;58.44;98121.48;114494;1206;103098;-74
2021/04/05 06:43:31;;;;;;;16.97;6.10;;;;;;;2.99;59.13;98116.47;114438;1206;103175;-72
2021/04/05 06:46:16;;;;;;;19.05;7.05;;;;;;;3.09;59.19;98103.64;114432;1205;103129;-73
2021/04/05 06:49:02;;;;;;;15.60;5.80;;;;;;;3.20;58.92;98090.73;114433;1206;103104;-71
2021/04/05 06:51:54;;;;;;;13.60;5.70;;;;;;;3.34;59.14;98108.33;114458;1206;103162;-70
2021/04/05 06:54:42;;;;;;;13.85;4.95;;;;;;;3.48;58.59;98104.88;114541;1205;103088;-70
2021/04/05 06:57:15;;;;;;;16.70;5.60;;;;;;;3.62;58.13;98093.56;114514;1206;103175;-71
2021/04/05 07:00:05;;;;;;;10.60;5.07;;;;;;;3.75;58.50;98096.30;114488;1206;103085;-72
2021/04/05 07:03:16;;;;;;;13.10;4.75;;;;;;;3.90;58.27;98098.91;114469;1206;103085;-70
2021/04/05 07:06:01;;;;;;;13.25;5.15;;;;;;;4.03;58.95;98081.45;114472;1206;103203;-71
2021/04/05 07:08:50;;;;;;;12.20;5.00;;;;;;;4.16;58.61;98085.02;114479;1206;103155;-72
2021/04/05 07:11:27;;;;;;;12.45;5.15;;;;;;;4.26;58.21;98089.72;114501;1206;103057;-71
2021/04/05 07:14:18;;;;;;;13.25;4.65;;;;;;;4.33;57.91;98083.09;114490;1205;103204;-70
2021/04/05 07:17:04;;;;;;;10.50;4.20;;;;;;;4.42;58.30;98076.42;114483;1206;103178;-73
2021/04/05 07:19:50;;;;;;;11.60;4.70;;;;;;;4.52;57.64;98077.51;114499;1205;103079;-72
2021/04/05 07:22:37;;;;;;;13.40;4.40;;;;;;;4.66;57.59;98083.69;114476;1205;103089;-72
2021/04/05 07:25:08;;;;;;;12.50;4.45;;;;;;;4.83;57.90;98080.83;114496;1206;103345;-73
2021/04/05 07:28:06;;;;;;;12.50;4.60;;;;;;;5.19;57.46;98081.12;114448;1206;103136;-71
2021/04/05 07:30:41;;;;;;;12.45;4.30;;;;;;;7.65;55.35;98057.54;114487;1206;103105;-72
2021/04/05 07:33:38;;;;;;;11.10;4.20;;;;;;;9.54;54.99;98054.85;114490;1206;103159;-72
2021/04/05 07:36:35;;;;;;;11.65;4.30;;;;;;;11.33;54.39;98050.76;114509;1206;103209;-75
2021/04/05 07:39:32;;;;;;;12.63;4.03;;;;;;;12.92;54.56;98041.98;114494;1205;103344;-71
2021/04/05 07:42:11;;;;;;;8.57;3.70;;;;;;;14.39;54.63;98035.14;114451;1206;103085;-71
2021/04/05 07:45:07;;;;;;;9.73;4.10;;;;;;;15.28;54.50;98025.81;114452;1206;103223;-71
2021/04/05 07:47:42;;;;;;;10.90;4.40;;;;;;;16.39;54.29;98033.31;114569;1205;103153;-72
2021/04/05 07:50:22;;;;;;;8.50;4.20;;;;;;;16.90;53.04;98022.97;114431;1206;103233;-73
2021/04/05 07:53:06;;;;;;;10.60;4.75;;;;;;;17.07;52.92;98014.80;114434;1206;103051;-72
2021/04/05 07:55:35;;;;;;;12.55;4.70;;;;;;;17.49;53.32;98012.63;114345;1206;103105;-73
2021/04/05 07:58:30;;;;;;;11.30;4.10;;;;;;;17.55;51.17;98001.13;114389;1206;103091;-72
2021/04/05 08:01:09;;;;;;;7.50;4.00;;;;;;;17.19;48.77;98010.69;114403;1206;103156;-72
2021/04/05 08:03:47;;;;;;;12.30;4.40;;;;;;;17.30;50.63;98017.48;114362;1206;103049;-73
2021/04/05 08:06:16;;;;;;;7.70;3.90;;;;;;;17.84;50.50;97994.13;114408;1206;103165;-73
2021/04/05 08:08:50;;;;;;;8.40;4.00;;;;;;;18.18;50.39;97992.75;114339;1206;103290;-75
2021/04/05 08:11:47;;;;;;;10.23;3.93;;;;;;;18.66;50.49;97981.51;114431;1205;102973;-68
2021/04/05 08:14:26;;;;;;;8.45;4.30;;;;;;;19.39;48.82;97982.41;114403;1205;103183;-76
2021/04/05 08:16:56;;;;;;;8.43;3.87;;;;;;;19.08;48.21;97976.38;114385;1205;103056;-75
2021/04/05 08:19:33;;;;;;;9.25;4.20;;;;;;;19.00;48.93;97971.93;114379;1205;103137;-71
2021/04/05 08:22:18;;;;;;;8.60;3.97;;;;;;;19.51;48.98;97978.16;114377;1206;103261;-71
2021/04/05 08:24:53;;;;;;;9.40;4.15;;;;;;;19.83;48.74;97966.97;114390;1206;103088;-73
2021/04/05 08:27:31;;;;;;;9.65;4.40;;;;;;;20.15;48.51;97959.27;114323;1206;103201;-70
2021/04/05 08:30:07;;;;;;;9.70;4.05;;;;;;;20.30;48.54;97959.12;114304;1206;103114;-71
2021/04/05 08:33:06;;;;;;;8.70;4.30;;;;;;;20.09;47.25;97950.12;114381;1206;103063;-71
2021/04/05 08:35:52;;;;;;;6.55;3.80;;;;;;;19.38;43.48;97935.76;114150;1206;103279;-72
2021/04/05 08:38:53;;;;;;;7.27;3.90;;;;;;;18.81;44.59;97938.35;114458;1206;103203;-72
2021/04/05 08:41:36;;;;;;;7.25;3.65;;;;;;;18.88;45.34;97923.09;114304;1205;102030;-72
2021/04/05 08:44:25;;;;;;;7.70;4.30;;;;;;;19.02;44.11;97924.06;114437;1206;103095;-70
2021/04/05 08:46:57;;;;;;;9.20;3.80;;;;;;;19.18;44.46;97911.34;114461;1206;103172;-71
2021/04/05 08:49:27;;;;;;;8.00;4.10;;;;;;;19.32;42.27;97906.88;115646;1206;101150;-71
2021/04/05 08:52:08;;;;;;;9.05;4.55;;;;;;;18.87;42.80;97894.48;114484;1206;103558;-70
2021/04/05 08:54:39;;;;;;;9.70;4.30;;;;;;;18.90;43.16;97886.02;114443;1206;103098;-70
2021/04/05 08:57:27;;;;;;;11.37;4.33;;;;;;;19.16;42.70;97884.58;114503;1205;103172;-71
2021/04/05 09:00:08;;;;;;;7.20;3.50;;;;;;;19.47;39.89;97887.89;114226;1206;102772;-69
2021/04/05 09:03:01;;;;;;;8.20;4.10;;;;;;;18.99;40.99;97873.26;113856;1206;103255;-68
2021/04/05 09:05:30;;;;;;;6.93;3.80;;;;;;;18.72;40.33;97858.73;115846;1205;101217;-69
2021/04/05 09:08:11;;;;;;;8.55;4.00;;;;;;;18.48;39.79;97854.57;115920;1205;101011;-68
2021/04/05 09:10:47;;;;;;;;;;;;;;;18.43;40.66;97841.67;115855;1213;100892;-69
2021/04/05 09:13:31;;;;;;;8.80;4.10;;;;;;;18.45;39.71;97845.00;115874;1205;101988;-69
2021/04/05 09:16:25;;;;;;;10.30;4.40;;;;;;;18.36;37.15;97833.53;115415;1205;103196;-70
2021/04/05 09:19:19;;;;;;;7.00;3.85;;;;;;;17.76;35.86;97841.73;114152;1206;103091;-69
2021/04/05 09:22:05;;;;;;;9.10;4.50;;;;;;;17.79;38.69;97827.92;114435;1204;103101;-69
2021/04/05 09:24:58;;;;;;;8.65;3.60;;;;;;;18.32;36.43;97826.05;114395;1206;103146;-69
2021/04/05 09:27:56;;;;;;;7.35;3.90;;;;;;;18.01;35.52;97809.17;114421;1206;103165;-69
2021/04/05 09:30:29;;;;;;;8.50;4.10;;;;;;;17.73;36.84;97790.20;114173;1206;103078;-70
2021/04/05 09:32:59;;;;;;;9.70;4.10;;;;;;;18.06;36.80;97798.67;114220;1206;103047;-69
2021/04/05 09:35:46;;;;;;;8.37;3.87;;;;;;;18.32;38.08;97799.14;114264;1206;103078;-69
2021/04/05 09:38:51;;;;;;;9.75;4.10;;;;;;;18.57;37.72;97788.77;114224;1206;103203;-68
2021/04/05 09:41:54;;;;;;;10.53;4.57;;;;;;;18.10;34.20;97783.82;114378;1205;103209;-70
2021/04/05 09:44:39;;;;;;;10.60;4.55;;;;;;;17.61;35.57;97790.67;114190;1206;103279;-69
2021/04/05 09:47:38;;;;;;;12.80;4.80;;;;;;;17.81;36.99;97782.84;114363;1206;103155;-69
2021/04/05 09:50:05;;;;;;;10.45;4.20;;;;;;;17.82;34.16;97784.51;114370;1206;103530;-69
2021/04/05 09:53:10;;;;;;;10.73;4.53;;;;;;;17.09;34.61;97769.16;114308;1206;103109;-70
2021/04/05 09:55:43;;;;;;;7.90;3.90;;;;;;;16.85;35.82;97774.75;114185;1206;103073;-69
2021/04/05 09:58:22;;;;;;;10.50;4.40;;;;;;;16.76;36.11;97765.95;114040;1206;103233;-70
2021/04/05 10:01:02;;;;;;;9.40;4.15;;;;;;;16.57;33.93;97752.03;114070;1206;103155;-69
2021/04/05 10:03:30;;;;;;;10.10;4.50;;;;;;;16.18;34.24;97766.45;114163;1206;103079;-69
2021/04/05 10:06:04;;;;;;;10.60;4.60;;;;;;;15.78;33.69;97766.55;114294;1205;103162;-69
2021/04/05 10:08:33;;;;;;;11.50;4.60;;;;;;;15.51;35.20;97754.47;114350;1205;102538;-74
2021/04/05 10:11:04;;;;;;;13.70;4.50;;;;;;;15.50;33.22;97755.47;114222;1206;103053;-70
2021/04/05 10:13:34;;;;;;;13.05;4.10;;;;;;;15.21;32.81;97751.59;114444;1206;103675;-73
2021/04/05 10:16:14;;;;;;;9.30;4.60;;;;;;;14.85;33.96;97737.67;114487;1206;103577;-74
2021/04/05 10:19:01;;;;;;;11.13;4.90;;;;;;;14.80;34.49;97740.02;114369;1205;103152;-72
2021/04/05 10:21:29;;;;;;;14.60;5.10;;;;;;;14.74;34.55;97729.99;114352;1206;103158;-74
2021/04/05 10:23:58;;;;;;;12.10;4.47;;;;;;;14.74;33.24;97722.78;114305;1206;103220;-76
2021/04/05 10:26:31;;;;;;;12.10;4.50;;;;;;;14.56;32.79;97714.12;114404;1205;103306;-74
2021/04/05 10:29:00;;;;;;;13.25;4.80;;;;;;;14.31;33.67;97694.59;114391;1205;103088;-70
2021/04/05 10:31:30;;;;;;;14.05;5.20;;;;;;;14.25;33.77;97702.29;114413;1206;103060;-73
2021/04/05 10:34:03;;;;;;;10.10;4.20;;;;;;;14.22;33.55;97688.43;114398;1206;103194;-73
2021/04/05 10:36:46;;;;;;;10.80;4.80;;;;;;;13.92;32.90;97691.61;114331;1206;103329;-71
2021/04/05 10:39:14;;;;;;;11.30;4.30;;;;;;;13.59;32.64;97704.10;114390;1205;103155;-70
2021/04/05 12:55:56;;;;;;;8.80;3.50;;;;;;;12.37;33.04;97446.46;114281;1206;103230;-71
2021/04/05 12:58:29;;;;;;;7.60;3.30;;;;;;;12.41;33.15;97436.30;114353;1206;103087;-70
2021/04/05 13:00:57;;;;;;;11.10;3.60;;;;;;;12.47;33.29;97441.80;114324;1205;103249;-72
2021/04/05 13:03:29;;;;;;;7.57;3.13;;;;;;;12.57;33.23;97428.33;114329;1206;103053;-72
2021/04/05 13:06:04;;;;;;;8.75;3.10;;;;;;;12.63;32.84;97422.31;114250;1206;103081;-72
2021/04/05 13:08:39;;;;;;;9.80;3.25;;;;;;;12.62;32.79;97433.16;114386;1206;103156;-71
2021/04/05 13:11:13;;;;;;;10.40;3.05;;;;;;;12.74;32.43;97429.18;114309;1206;103146;-72
2021/04/05 13:13:52;;;;;;;6.37;2.83;;;;;;;12.76;32.68;97419.18;114456;1206;103069;-71
2021/04/05 13:16:26;;;;;;;7.05;3.30;;;;;;;12.87;32.80;97412.67;114457;1206;103075;-71
2021/04/05 13:19:15;;;;;;;8.50;3.17;;;;;;;13.05;33.01;97409.82;114446;1205;103203;-72
2021/04/05 13:21:46;;;;;;;9.10;3.45;;;;;;;13.26;33.25;97408.44;114452;1206;103056;-72
2021/04/05 13:24:23;;;;;;;9.37;3.20;;;;;;;13.38;32.70;97433.80;114477;1206;103046;-74
2021/04/05 13:27:01;;;;;;;6.20;3.20;;;;;;;13.28;32.46;97411.78;114464;1206;103085;-72
2021/04/05 13:29:32;;;;;;;7.70;3.10;;;;;;;13.23;32.78;97408.81;114466;1206;103309;-71
2021/04/05 13:32:04;;;;;;;7.40;3.35;;;;;;;13.28;32.85;97395.76;114446;1206;103552;-71
2021/04/05 13:34:35;;;;;;;7.45;3.50;;;;;;;13.24;32.55;97381.92;114348;1205;103501;-72
2021/04/05 13:37:10;;;;;;;8.70;3.50;;;;;;;13.20;32.47;97377.92;114191;1206;103056;-72
2021/04/05 13:39:40;;;;;;;8.30;3.27;;;;;;;13.09;32.62;97363.11;114280;1206;103152;-70
2021/04/05 13:42:23;;;;;;;7.50;3.10;;;;;;;13.05;32.42;97376.94;114434;1206;103085;-71
2021/04/05 13:45:05;;;;;;;7.67;3.43;;;;;;;12.94;32.39;97370.97;114248;1206;103194;-71
2021/04/05 13:47:34;;;;;;;11.85;4.25;;;;;;;12.84;32.87;97354.30;114320;1206;103095;-70
2021/04/05 13:50:04;;;;;;;8.00;3.70;;;;;;;12.90;33.00;97358.12;114226;1206;103082;-70
2021/04/05 13:52:33;;;;;;;7.00;2.80;;;;;;;12.99;32.54;97364.30;114384;1206;103168;-74
2021/04/05 13:55:08;;;;;;;9.45;3.35;;;;;;;13.01;32.56;97375.64;114139;1206;103105;-71
2021/04/05 13:58:11;;;;;;;9.15;3.35;;;;;;;13.05;32.33;97344.91;114288;1206;103072;-71
2021/04/05 14:00:42;;;;;;;6.73;3.30;;;;;;;13.15;32.57;97345.56;114173;1206;103166;-71
2021/04/05 14:03:22;;;;;;;7.10;3.50;;;;;;;13.15;32.46;97345.56;114261;1206;103111;-71
2021/04/05 14:05:52;;;;;;;8.67;3.30;;;;;;;13.09;32.82;97328.41;114284;1206;103197;-71
2021/04/05 14:08:27;;;;;;;8.30;3.70;;;;;;;13.01;32.82;97328.42;114280;1206;103120;-71